sensor_id;sensor_type;location;lat;lon;timestamp;temperature;humidity
18597;DHT22;9428;50.950;6.912;2022-08-25T00:02:13;24.00;99.90
18597;DHT22;9428;50.950;6.912;2022-08-25T00:05:00;24.00;99.90
18597;DHT22;9428;50.950;6.912;2022-08-25T00:07:48;23.90;99.90
18597;DHT22;9428;50.950;6.912;2022-08-25T00:10:37;23.90;99.90
18597;DHT22;9428;50.950;6.912;2022-08-25T00:13:24;23.80;99.90
18597;DHT22;9428;50.950;6.912;2022-08-25T00:16:12;23.80;99.90
18597;DHT22;9428;50.950;6.912;2022-08-25T00:19:06;23.80;99.90
18597;DHT22;9428;50.950;6.912;2022-08-25T00:21:54;23.90;99.90
18597;DHT22;9428;50.950;6.912;2022-08-25T00:24:41;23.80;99.90
18597;DHT22;9428;50.950;6.912;2022-08-25T00:27:28;23.80;99.90
18597;DHT22;9428;50.950;6.912;2022-08-25T00:30:16;23.70;99.90
18597;DHT22;9428;50.950;6.912;2022-08-25T00:33:04;23.80;99.90
18597;DHT22;9428;50.950;6.912;2022-08-25T00:35:53;23.70;99.90
18597;DHT22;9428;50.950;6.912;2022-08-25T00:38:42;23.70;99.90
18597;DHT22;9428;50.950;6.912;2022-08-25T00:41:30;23.60;99.90
18597;DHT22;9428;50.950;6.912;2022-08-25T00:44:20;23.60;99.90
18597;DHT22;9428;50.950;6.912;2022-08-25T00:47:07;23.60;99.90
18597;DHT22;9428;50.950;6.912;2022-08-25T00:49:57;23.60;99.90
18597;DHT22;9428;50.950;6.912;2022-08-25T00:52:50;23.60;99.90
18597;DHT22;9428;50.950;6.912;2022-08-25T00:55:39;23.60;99.90
18597;DHT22;9428;50.950;6.912;2022-08-25T00:58:28;23.50;99.90
18597;DHT22;9428;50.950;6.912;2022-08-25T01:01:17;23.50;99.90
18597;DHT22;9428;50.950;6.912;2022-08-25T01:04:05;23.50;99.90
18597;DHT22;9428;50.950;6.912;2022-08-25T01:06:52;23.50;99.90
18597;DHT22;9428;50.950;6.912;2022-08-25T01:09:42;23.50;99.90
18597;DHT22;9428;50.950;6.912;2022-08-25T01:12:30;23.40;99.90
18597;DHT22;9428;50.950;6.912;2022-08-25T01:15:17;23.40;99.90
18597;DHT22;9428;50.950;6.912;2022-08-25T01:18:06;23.40;99.90
18597;DHT22;9428;50.950;6.912;2022-08-25T01:20:57;23.40;99.90
18597;DHT22;9428;50.950;6.912;2022-08-25T01:23:45;23.50;99.90
18597;DHT22;9428;50.950;6.912;2022-08-25T01:26:34;23.40;99.90
18597;DHT22;9428;50.950;6.912;2022-08-25T01:29:21;23.40;99.90
18597;DHT22;9428;50.950;6.912;2022-08-25T01:32:11;23.30;99.90
18597;DHT22;9428;50.950;6.912;2022-08-25T01:34:59;23.50;99.90
18597;DHT22;9428;50.950;6.912;2022-08-25T01:37:48;23.40;99.90
18597;DHT22;9428;50.950;6.912;2022-08-25T01:40:37;23.40;99.90
18597;DHT22;9428;50.950;6.912;2022-08-25T01:43:35;23.30;99.90
18597;DHT22;9428;50.950;6.912;2022-08-25T01:46:23;23.30;99.90
18597;DHT22;9428;50.950;6.912;2022-08-25T01:49:10;23.40;99.90
18597;DHT22;9428;50.950;6.912;2022-08-25T01:52:01;23.30;99.90
18597;DHT22;9428;50.950;6.912;2022-08-25T01:54:52;23.40;99.90
18597;DHT22;9428;50.950;6.912;2022-08-25T01:57:39;23.30;99.90
18597;DHT22;9428;50.950;6.912;2022-08-25T02:00:27;23.40;99.90
18597;DHT22;9428;50.950;6.912;2022-08-25T02:03:14;23.30;99.90
18597;DHT22;9428;50.950;6.912;2022-08-25T02:06:03;23.20;99.90
18597;DHT22;9428;50.950;6.912;2022-08-25T02:08:51;23.20;99.90
18597;DHT22;9428;50.950;6.912;2022-08-25T02:11:42;23.20;99.90
18597;DHT22;9428;50.950;6.912;2022-08-25T02:14:29;23.10;99.90
18597;DHT22;9428;50.950;6.912;2022-08-25T02:17:17;23.20;99.90
18597;DHT22;9428;50.950;6.912;2022-08-25T02:20:05;23.20;99.90
18597;DHT22;9428;50.950;6.912;2022-08-25T02:22:53;23.10;99.90
18597;DHT22;9428;50.950;6.912;2022-08-25T02:25:41;23.10;99.90
18597;DHT22;9428;50.950;6.912;2022-08-25T02:28:30;23.10;99.90
18597;DHT22;9428;50.950;6.912;2022-08-25T02:31:19;23.00;99.90
18597;DHT22;9428;50.950;6.912;2022-08-25T02:34:08;23.00;99.90
18597;DHT22;9428;50.950;6.912;2022-08-25T02:36:56;23.00;99.90
18597;DHT22;9428;50.950;6.912;2022-08-25T02:39:43;23.00;99.90
18597;DHT22;9428;50.950;6.912;2022-08-25T02:42:30;23.00;99.90
18597;DHT22;9428;50.950;6.912;2022-08-25T02:45:19;23.00;99.90
18597;DHT22;9428;50.950;6.912;2022-08-25T02:48:06;22.90;99.90
18597;DHT22;9428;50.950;6.912;2022-08-25T02:50:54;23.00;99.90
18597;DHT22;9428;50.950;6.912;2022-08-25T02:53:41;23.00;99.90
18597;DHT22;9428;50.950;6.912;2022-08-25T02:56:31;22.90;99.90
18597;DHT22;9428;50.950;6.912;2022-08-25T02:59:18;22.90;99.90
18597;DHT22;9428;50.950;6.912;2022-08-25T03:02:07;22.90;99.90
18597;DHT22;9428;50.950;6.912;2022-08-25T03:04:54;22.90;99.90
18597;DHT22;9428;50.950;6.912;2022-08-25T03:07:42;22.90;99.90
18597;DHT22;9428;50.950;6.912;2022-08-25T03:10:29;22.90;99.90
18597;DHT22;9428;50.950;6.912;2022-08-25T03:13:17;22.90;99.90
18597;DHT22;9428;50.950;6.912;2022-08-25T03:16:05;22.90;99.90
18597;DHT22;9428;50.950;6.912;2022-08-25T03:18:54;22.90;99.90
18597;DHT22;9428;50.950;6.912;2022-08-25T03:21:42;22.90;99.90
18597;DHT22;9428;50.950;6.912;2022-08-25T03:24:30;22.90;99.90
18597;DHT22;9428;50.950;6.912;2022-08-25T03:27:17;22.90;99.90
18597;DHT22;9428;50.950;6.912;2022-08-25T03:30:05;22.90;99.90
18597;DHT22;9428;50.950;6.912;2022-08-25T03:32:53;22.80;99.90
18597;DHT22;9428;50.950;6.912;2022-08-25T03:35:42;22.80;99.90
18597;DHT22;9428;50.950;6.912;2022-08-25T03:38:29;22.80;99.90
18597;DHT22;9428;50.950;6.912;2022-08-25T03:41:19;22.80;99.90
18597;DHT22;9428;50.950;6.912;2022-08-25T03:44:07;22.80;99.90
18597;DHT22;9428;50.950;6.912;2022-08-25T03:46:55;22.80;99.90
18597;DHT22;9428;50.950;6.912;2022-08-25T03:49:42;22.80;99.90
18597;DHT22;9428;50.950;6.912;2022-08-25T03:52:30;22.80;99.90
18597;DHT22;9428;50.950;6.912;2022-08-25T03:55:18;22.70;99.90
18597;DHT22;9428;50.950;6.912;2022-08-25T03:58:05;22.70;99.90
18597;DHT22;9428;50.950;6.912;2022-08-25T04:00:52;22.70;99.90
18597;DHT22;9428;50.950;6.912;2022-08-25T04:03:41;22.70;99.90
18597;DHT22;9428;50.950;6.912;2022-08-25T04:06:29;22.70;99.90
18597;DHT22;9428;50.950;6.912;2022-08-25T04:09:18;22.60;99.90
18597;DHT22;9428;50.950;6.912;2022-08-25T04:12:05;22.60;99.90
18597;DHT22;9428;50.950;6.912;2022-08-25T04:14:52;22.60;99.90
18597;DHT22;9428;50.950;6.912;2022-08-25T04:17:40;22.60;99.90
18597;DHT22;9428;50.950;6.912;2022-08-25T04:20:27;22.60;99.90
18597;DHT22;9428;50.950;6.912;2022-08-25T04:23:15;22.50;99.90
18597;DHT22;9428;50.950;6.912;2022-08-25T04:26:07;22.50;99.90
18597;DHT22;9428;50.950;6.912;2022-08-25T04:28:56;22.60;99.90
18597;DHT22;9428;50.950;6.912;2022-08-25T04:31:46;22.50;99.90
18597;DHT22;9428;50.950;6.912;2022-08-25T04:34:35;22.50;99.90
18597;DHT22;9428;50.950;6.912;2022-08-25T04:37:22;22.50;99.90
18597;DHT22;9428;50.950;6.912;2022-08-25T04:40:10;22.50;99.90
18597;DHT22;9428;50.950;6.912;2022-08-25T04:42:59;22.50;99.90
18597;DHT22;9428;50.950;6.912;2022-08-25T04:45:46;22.40;99.90
18597;DHT22;9428;50.950;6.912;2022-08-25T04:48:33;22.50;99.90
18597;DHT22;9428;50.950;6.912;2022-08-25T04:51:22;22.40;99.90
18597;DHT22;9428;50.950;6.912;2022-08-25T04:54:11;22.40;99.90
18597;DHT22;9428;50.950;6.912;2022-08-25T04:57:01;22.40;99.90
18597;DHT22;9428;50.950;6.912;2022-08-25T04:59:50;22.50;99.90
18597;DHT22;9428;50.950;6.912;2022-08-25T05:02:37;22.50;99.90
18597;DHT22;9428;50.950;6.912;2022-08-25T05:05:24;22.40;99.90
18597;DHT22;9428;50.950;6.912;2022-08-25T05:08:12;22.40;99.90
18597;DHT22;9428;50.950;6.912;2022-08-25T05:11:04;22.40;99.90
18597;DHT22;9428;50.950;6.912;2022-08-25T05:13:53;22.30;99.90
18597;DHT22;9428;50.950;6.912;2022-08-25T05:16:42;22.40;99.90
18597;DHT22;9428;50.950;6.912;2022-08-25T05:19:29;22.40;99.90
18597;DHT22;9428;50.950;6.912;2022-08-25T05:22:16;22.40;99.90
18597;DHT22;9428;50.950;6.912;2022-08-25T05:25:04;22.40;99.90
18597;DHT22;9428;50.950;6.912;2022-08-25T05:27:51;22.40;99.90
18597;DHT22;9428;50.950;6.912;2022-08-25T05:30:40;22.40;99.90
18597;DHT22;9428;50.950;6.912;2022-08-25T05:33:30;22.40;99.90
18597;DHT22;9428;50.950;6.912;2022-08-25T05:36:19;22.40;99.90
18597;DHT22;9428;50.950;6.912;2022-08-25T05:39:07;22.40;99.90
18597;DHT22;9428;50.950;6.912;2022-08-25T05:41:54;22.40;99.90
18597;DHT22;9428;50.950;6.912;2022-08-25T05:44:41;22.40;99.90
18597;DHT22;9428;50.950;6.912;2022-08-25T05:47:28;22.50;99.90
18597;DHT22;9428;50.950;6.912;2022-08-25T05:50:17;22.50;99.90
18597;DHT22;9428;50.950;6.912;2022-08-25T05:53:04;22.50;99.90
18597;DHT22;9428;50.950;6.912;2022-08-25T05:55:53;22.50;99.90
18597;DHT22;9428;50.950;6.912;2022-08-25T05:58:42;22.50;99.90
18597;DHT22;9428;50.950;6.912;2022-08-25T06:01:29;22.50;99.90
18597;DHT22;9428;50.950;6.912;2022-08-25T06:04:33;22.50;99.90
18597;DHT22;9428;50.950;6.912;2022-08-25T06:07:22;22.50;99.90
18597;DHT22;9428;50.950;6.912;2022-08-25T06:10:10;22.50;99.90
18597;DHT22;9428;50.950;6.912;2022-08-25T06:12:58;22.50;99.90
18597;DHT22;9428;50.950;6.912;2022-08-25T06:15:45;22.60;99.90
18597;DHT22;9428;50.950;6.912;2022-08-25T06:18:32;22.60;99.90
18597;DHT22;9428;50.950;6.912;2022-08-25T06:21:20;22.60;99.90
18597;DHT22;9428;50.950;6.912;2022-08-25T06:24:11;22.60;99.90
18597;DHT22;9428;50.950;6.912;2022-08-25T06:26:58;22.60;99.90
18597;DHT22;9428;50.950;6.912;2022-08-25T06:29:46;22.60;99.90
18597;DHT22;9428;50.950;6.912;2022-08-25T06:32:34;22.70;99.90
18597;DHT22;9428;50.950;6.912;2022-08-25T06:35:22;22.70;99.90
18597;DHT22;9428;50.950;6.912;2022-08-25T06:38:09;22.80;99.90
18597;DHT22;9428;50.950;6.912;2022-08-25T06:41:01;22.80;99.90
18597;DHT22;9428;50.950;6.912;2022-08-25T06:43:48;22.80;99.90
18597;DHT22;9428;50.950;6.912;2022-08-25T06:46:35;22.80;99.90
18597;DHT22;9428;50.950;6.912;2022-08-25T06:49:23;22.90;99.90
18597;DHT22;9428;50.950;6.912;2022-08-25T06:52:13;22.90;99.90
18597;DHT22;9428;50.950;6.912;2022-08-25T06:55:00;22.90;99.90
18597;DHT22;9428;50.950;6.912;2022-08-25T06:57:51;22.90;99.90
18597;DHT22;9428;50.950;6.912;2022-08-25T07:00:38;23.00;99.90
18597;DHT22;9428;50.950;6.912;2022-08-25T07:03:26;23.00;99.90
18597;DHT22;9428;50.950;6.912;2022-08-25T07:06:13;23.00;99.90
18597;DHT22;9428;50.950;6.912;2022-08-25T07:09:02;23.00;99.90
18597;DHT22;9428;50.950;6.912;2022-08-25T07:11:50;23.10;99.90
18597;DHT22;9428;50.950;6.912;2022-08-25T07:14:38;23.10;99.90
18597;DHT22;9428;50.950;6.912;2022-08-25T07:17:25;23.20;99.90
18597;DHT22;9428;50.950;6.912;2022-08-25T07:20:13;23.20;99.90
18597;DHT22;9428;50.950;6.912;2022-08-25T07:23:00;23.10;99.90
18597;DHT22;9428;50.950;6.912;2022-08-25T07:25:48;23.20;99.90
18597;DHT22;9428;50.950;6.912;2022-08-25T07:28:35;23.20;99.90
18597;DHT22;9428;50.950;6.912;2022-08-25T07:31:24;23.30;99.90
18597;DHT22;9428;50.950;6.912;2022-08-25T07:34:11;23.30;99.90
18597;DHT22;9428;50.950;6.912;2022-08-25T07:37:17;23.40;99.90
18597;DHT22;9428;50.950;6.912;2022-08-25T07:40:06;23.50;99.90
18597;DHT22;9428;50.950;6.912;2022-08-25T07:42:55;23.40;99.90
18597;DHT22;9428;50.950;6.912;2022-08-25T07:45:42;23.50;99.90
18597;DHT22;9428;50.950;6.912;2022-08-25T07:48:31;23.50;99.90
18597;DHT22;9428;50.950;6.912;2022-08-25T07:51:18;23.60;99.90
18597;DHT22;9428;50.950;6.912;2022-08-25T07:54:05;23.70;99.90
18597;DHT22;9428;50.950;6.912;2022-08-25T07:56:53;23.80;99.90
18597;DHT22;9428;50.950;6.912;2022-08-25T07:59:41;23.80;99.90
18597;DHT22;9428;50.950;6.912;2022-08-25T08:02:28;23.90;99.90
18597;DHT22;9428;50.950;6.912;2022-08-25T08:05:16;24.00;99.90
18597;DHT22;9428;50.950;6.912;2022-08-25T08:08:04;23.90;99.90
18597;DHT22;9428;50.950;6.912;2022-08-25T08:10:51;23.90;99.90
18597;DHT22;9428;50.950;6.912;2022-08-25T08:13:38;24.00;99.90
18597;DHT22;9428;50.950;6.912;2022-08-25T08:16:27;24.00;99.90
18597;DHT22;9428;50.950;6.912;2022-08-25T08:19:15;24.10;99.90
18597;DHT22;9428;50.950;6.912;2022-08-25T08:22:05;24.20;99.90
18597;DHT22;9428;50.950;6.912;2022-08-25T08:24:52;24.20;99.90
18597;DHT22;9428;50.950;6.912;2022-08-25T08:27:40;24.30;99.90
18597;DHT22;9428;50.950;6.912;2022-08-25T08:30:29;24.20;99.90
18597;DHT22;9428;50.950;6.912;2022-08-25T08:33:17;24.50;99.90
18597;DHT22;9428;50.950;6.912;2022-08-25T08:36:08;24.60;99.90
18597;DHT22;9428;50.950;6.912;2022-08-25T08:38:57;24.60;99.90
18597;DHT22;9428;50.950;6.912;2022-08-25T08:41:59;24.60;99.90
18597;DHT22;9428;50.950;6.912;2022-08-25T08:45:15;24.60;99.90
18597;DHT22;9428;50.950;6.912;2022-08-25T08:48:17;24.70;99.90
18597;DHT22;9428;50.950;6.912;2022-08-25T08:51:15;24.70;99.90
18597;DHT22;9428;50.950;6.912;2022-08-25T08:54:09;24.80;99.90
18597;DHT22;9428;50.950;6.912;2022-08-25T08:57:04;24.80;99.90
18597;DHT22;9428;50.950;6.912;2022-08-25T08:59:59;24.70;99.90
18597;DHT22;9428;50.950;6.912;2022-08-25T09:02:51;24.80;99.90
18597;DHT22;9428;50.950;6.912;2022-08-25T09:05:44;24.80;99.90
18597;DHT22;9428;50.950;6.912;2022-08-25T09:08:33;25.10;99.90
18597;DHT22;9428;50.950;6.912;2022-08-25T09:11:35;25.20;99.90
18597;DHT22;9428;50.950;6.912;2022-08-25T09:14:46;25.00;99.90
18597;DHT22;9428;50.950;6.912;2022-08-25T09:18:01;25.10;99.90
18597;DHT22;9428;50.950;6.912;2022-08-25T09:21:08;25.20;99.90
18597;DHT22;9428;50.950;6.912;2022-08-25T09:24:11;25.40;99.90
18597;DHT22;9428;50.950;6.912;2022-08-25T09:27:11;25.40;99.90
18597;DHT22;9428;50.950;6.912;2022-08-25T09:30:04;25.50;99.90
18597;DHT22;9428;50.950;6.912;2022-08-25T09:32:53;25.50;99.90
18597;DHT22;9428;50.950;6.912;2022-08-25T09:35:50;25.50;99.90
18597;DHT22;9428;50.950;6.912;2022-08-25T09:38:38;25.50;99.90
18597;DHT22;9428;50.950;6.912;2022-08-25T09:41:41;25.50;99.90
18597;DHT22;9428;50.950;6.912;2022-08-25T09:44:32;25.60;99.90
18597;DHT22;9428;50.950;6.912;2022-08-25T09:47:22;25.80;99.90
18597;DHT22;9428;50.950;6.912;2022-08-25T09:50:15;25.90;99.90
18597;DHT22;9428;50.950;6.912;2022-08-25T09:53:12;25.70;99.90
18597;DHT22;9428;50.950;6.912;2022-08-25T09:56:03;25.80;99.90
18597;DHT22;9428;50.950;6.912;2022-08-25T09:58:51;25.90;99.90
18597;DHT22;9428;50.950;6.912;2022-08-25T10:01:48;26.00;99.90
18597;DHT22;9428;50.950;6.912;2022-08-25T10:04:37;25.90;99.90
18597;DHT22;9428;50.950;6.912;2022-08-25T10:07:27;26.30;99.90
18597;DHT22;9428;50.950;6.912;2022-08-25T10:10:17;26.30;99.90
18597;DHT22;9428;50.950;6.912;2022-08-25T10:13:12;26.00;99.90
18597;DHT22;9428;50.950;6.912;2022-08-25T10:16:05;25.90;99.90
18597;DHT22;9428;50.950;6.912;2022-08-25T10:19:04;25.80;99.90
18597;DHT22;9428;50.950;6.912;2022-08-25T10:22:04;26.00;99.90
18597;DHT22;9428;50.950;6.912;2022-08-25T10:24:52;25.90;99.90
18597;DHT22;9428;50.950;6.912;2022-08-25T10:27:44;26.20;99.90
18597;DHT22;9428;50.950;6.912;2022-08-25T10:30:49;26.30;99.90
18597;DHT22;9428;50.950;6.912;2022-08-25T10:33:43;26.30;99.90
18597;DHT22;9428;50.950;6.912;2022-08-25T10:36:42;26.30;99.90
18597;DHT22;9428;50.950;6.912;2022-08-25T10:39:39;26.20;99.90
18597;DHT22;9428;50.950;6.912;2022-08-25T10:42:33;26.10;99.90
18597;DHT22;9428;50.950;6.912;2022-08-25T10:45:24;26.40;99.90
18597;DHT22;9428;50.950;6.912;2022-08-25T10:48:42;26.20;99.90
18597;DHT22;9428;50.950;6.912;2022-08-25T10:51:44;26.20;99.90
18597;DHT22;9428;50.950;6.912;2022-08-25T10:54:40;26.50;99.90
18597;DHT22;9428;50.950;6.912;2022-08-25T10:57:34;26.60;99.90
18597;DHT22;9428;50.950;6.912;2022-08-25T11:00:22;26.50;99.90
18597;DHT22;9428;50.950;6.912;2022-08-25T11:03:30;26.60;99.90
18597;DHT22;9428;50.950;6.912;2022-08-25T11:06:26;26.40;99.90
18597;DHT22;9428;50.950;6.912;2022-08-25T11:09:19;26.40;99.90
18597;DHT22;9428;50.950;6.912;2022-08-25T11:12:09;26.20;99.90
18597;DHT22;9428;50.950;6.912;2022-08-25T11:15:02;26.50;99.90
18597;DHT22;9428;50.950;6.912;2022-08-25T11:17:52;26.80;99.90
18597;DHT22;9428;50.950;6.912;2022-08-25T11:20:45;26.90;99.90
18597;DHT22;9428;50.950;6.912;2022-08-25T11:23:37;26.90;99.90
18597;DHT22;9428;50.950;6.912;2022-08-25T11:26:29;26.80;99.90
18597;DHT22;9428;50.950;6.912;2022-08-25T11:29:20;26.60;99.90
18597;DHT22;9428;50.950;6.912;2022-08-25T11:32:09;26.60;99.90
18597;DHT22;9428;50.950;6.912;2022-08-25T11:34:59;26.60;99.90
18597;DHT22;9428;50.950;6.912;2022-08-25T11:38:02;27.10;99.90
18597;DHT22;9428;50.950;6.912;2022-08-25T11:41:00;27.30;99.90
18597;DHT22;9428;50.950;6.912;2022-08-25T11:44:08;27.10;99.90
18597;DHT22;9428;50.950;6.912;2022-08-25T11:47:15;26.80;99.90
18597;DHT22;9428;50.950;6.912;2022-08-25T11:50:06;26.80;99.90
18597;DHT22;9428;50.950;6.912;2022-08-25T11:52:55;27.00;99.90
18597;DHT22;9428;50.950;6.912;2022-08-25T11:55:48;27.00;99.90
18597;DHT22;9428;50.950;6.912;2022-08-25T11:58:40;27.30;99.90
18597;DHT22;9428;50.950;6.912;2022-08-25T12:04:53;27.70;99.90
18597;DHT22;9428;50.950;6.912;2022-08-25T12:08:05;27.60;99.90
18597;DHT22;9428;50.950;6.912;2022-08-25T12:11:10;27.30;99.90
18597;DHT22;9428;50.950;6.912;2022-08-25T12:14:14;27.30;99.90
18597;DHT22;9428;50.950;6.912;2022-08-25T12:17:15;27.20;99.90
18597;DHT22;9428;50.950;6.912;2022-08-25T12:20:05;27.00;99.90
18597;DHT22;9428;50.950;6.912;2022-08-25T12:22:55;26.80;99.90
18597;DHT22;9428;50.950;6.912;2022-08-25T12:25:51;26.80;99.90
18597;DHT22;9428;50.950;6.912;2022-08-25T12:28:50;27.00;99.90
18597;DHT22;9428;50.950;6.912;2022-08-25T12:31:57;27.00;99.90
18597;DHT22;9428;50.950;6.912;2022-08-25T12:35:18;27.10;99.90
18597;DHT22;9428;50.950;6.912;2022-08-25T12:38:10;27.00;99.90
18597;DHT22;9428;50.950;6.912;2022-08-25T12:41:03;27.10;99.90
18597;DHT22;9428;50.950;6.912;2022-08-25T12:44:09;27.10;99.90
18597;DHT22;9428;50.950;6.912;2022-08-25T12:47:10;27.10;99.90
18597;DHT22;9428;50.950;6.912;2022-08-25T12:50:34;27.20;99.90
18597;DHT22;9428;50.950;6.912;2022-08-25T12:53:29;27.40;99.90
18597;DHT22;9428;50.950;6.912;2022-08-25T12:56:24;27.50;99.90
18597;DHT22;9428;50.950;6.912;2022-08-25T12:59:16;27.40;99.90
18597;DHT22;9428;50.950;6.912;2022-08-25T13:05:43;27.40;99.90
18597;DHT22;9428;50.950;6.912;2022-08-25T13:11:55;27.40;99.90
18597;DHT22;9428;50.950;6.912;2022-08-25T13:14:51;27.40;99.90
18597;DHT22;9428;50.950;6.912;2022-08-25T13:17:39;27.20;99.90
18597;DHT22;9428;50.950;6.912;2022-08-25T13:20:26;27.30;99.90
18597;DHT22;9428;50.950;6.912;2022-08-25T13:23:21;27.70;99.90
18597;DHT22;9428;50.950;6.912;2022-08-25T13:26:11;27.60;99.90
18597;DHT22;9428;50.950;6.912;2022-08-25T13:29:02;27.90;99.90
18597;DHT22;9428;50.950;6.912;2022-08-25T13:31:59;27.70;99.90
18597;DHT22;9428;50.950;6.912;2022-08-25T13:34:47;27.40;99.90
18597;DHT22;9428;50.950;6.912;2022-08-25T13:37:34;27.40;99.90
18597;DHT22;9428;50.950;6.912;2022-08-25T13:40:25;27.40;99.90
18597;DHT22;9428;50.950;6.912;2022-08-25T13:43:13;27.30;99.90
18597;DHT22;9428;50.950;6.912;2022-08-25T13:46:01;27.40;99.90
18597;DHT22;9428;50.950;6.912;2022-08-25T13:48:49;27.50;99.90
18597;DHT22;9428;50.950;6.912;2022-08-25T13:51:38;27.70;99.90
18597;DHT22;9428;50.950;6.912;2022-08-25T13:54:30;27.60;99.90
18597;DHT22;9428;50.950;6.912;2022-08-25T13:57:23;27.30;99.90
18597;DHT22;9428;50.950;6.912;2022-08-25T14:00:12;27.50;99.90
18597;DHT22;9428;50.950;6.912;2022-08-25T14:03:01;27.70;99.90
18597;DHT22;9428;50.950;6.912;2022-08-25T14:06:03;27.70;99.90
18597;DHT22;9428;50.950;6.912;2022-08-25T14:09:11;27.40;99.90
18597;DHT22;9428;50.950;6.912;2022-08-25T14:12:00;27.50;99.90
18597;DHT22;9428;50.950;6.912;2022-08-25T14:14:59;27.40;99.90
18597;DHT22;9428;50.950;6.912;2022-08-25T14:17:58;27.30;99.90
18597;DHT22;9428;50.950;6.912;2022-08-25T14:20:47;27.40;99.90
18597;DHT22;9428;50.950;6.912;2022-08-25T14:23:37;27.50;99.90
18597;DHT22;9428;50.950;6.912;2022-08-25T14:26:25;27.50;99.90
18597;DHT22;9428;50.950;6.912;2022-08-25T14:29:13;27.50;99.90
18597;DHT22;9428;50.950;6.912;2022-08-25T14:32:02;27.50;99.90
18597;DHT22;9428;50.950;6.912;2022-08-25T14:34:49;27.60;99.90
18597;DHT22;9428;50.950;6.912;2022-08-25T14:37:36;27.70;99.40
18597;DHT22;9428;50.950;6.912;2022-08-25T14:40:23;27.60;99.90
18597;DHT22;9428;50.950;6.912;2022-08-25T14:43:11;27.70;98.60
18597;DHT22;9428;50.950;6.912;2022-08-25T14:46:00;27.90;97.30
18597;DHT22;9428;50.950;6.912;2022-08-25T14:48:53;27.80;97.70
18597;DHT22;9428;50.950;6.912;2022-08-25T14:51:41;27.90;98.70
18597;DHT22;9428;50.950;6.912;2022-08-25T14:54:29;28.20;98.90
18597;DHT22;9428;50.950;6.912;2022-08-25T14:57:16;28.30;98.40
18597;DHT22;9428;50.950;6.912;2022-08-25T15:00:06;27.90;99.20
18597;DHT22;9428;50.950;6.912;2022-08-25T15:02:53;27.80;99.80
18597;DHT22;9428;50.950;6.912;2022-08-25T15:05:42;28.10;99.10
18597;DHT22;9428;50.950;6.912;2022-08-25T15:08:30;28.20;98.40
18597;DHT22;9428;50.950;6.912;2022-08-25T15:11:35;27.90;97.70
18597;DHT22;9428;50.950;6.912;2022-08-25T15:14:23;28.20;97.40
18597;DHT22;9428;50.950;6.912;2022-08-25T15:17:15;28.00;97.80
18597;DHT22;9428;50.950;6.912;2022-08-25T15:20:03;28.20;97.00
18597;DHT22;9428;50.950;6.912;2022-08-25T15:22:52;27.90;98.30
18597;DHT22;9428;50.950;6.912;2022-08-25T15:25:40;28.00;97.90
18597;DHT22;9428;50.950;6.912;2022-08-25T15:28:28;28.20;97.60
18597;DHT22;9428;50.950;6.912;2022-08-25T15:31:16;28.00;98.10
18597;DHT22;9428;50.950;6.912;2022-08-25T15:34:05;27.80;98.10
18597;DHT22;9428;50.950;6.912;2022-08-25T15:36:53;27.90;97.10
18597;DHT22;9428;50.950;6.912;2022-08-25T15:39:43;27.90;96.80
18597;DHT22;9428;50.950;6.912;2022-08-25T15:42:30;27.80;97.40
18597;DHT22;9428;50.950;6.912;2022-08-25T15:45:18;28.40;97.50
18597;DHT22;9428;50.950;6.912;2022-08-25T15:48:05;28.20;97.50
18597;DHT22;9428;50.950;6.912;2022-08-25T15:50:53;28.50;97.30
18597;DHT22;9428;50.950;6.912;2022-08-25T15:53:41;28.60;96.50
18597;DHT22;9428;50.950;6.912;2022-08-25T15:56:30;28.60;96.40
18597;DHT22;9428;50.950;6.912;2022-08-25T15:59:17;28.40;96.70
18597;DHT22;9428;50.950;6.912;2022-08-25T16:02:05;28.10;96.70
18597;DHT22;9428;50.950;6.912;2022-08-25T16:04:53;28.20;96.10
18597;DHT22;9428;50.950;6.912;2022-08-25T16:07:40;28.00;96.30
18597;DHT22;9428;50.950;6.912;2022-08-25T16:10:27;27.90;96.50
18597;DHT22;9428;50.950;6.912;2022-08-25T16:13:19;27.90;96.00
18597;DHT22;9428;50.950;6.912;2022-08-25T16:16:07;27.90;95.70
18597;DHT22;9428;50.950;6.912;2022-08-25T16:18:55;27.80;95.20
18597;DHT22;9428;50.950;6.912;2022-08-25T16:21:42;27.90;94.70
18597;DHT22;9428;50.950;6.912;2022-08-25T16:24:30;27.90;94.90
18597;DHT22;9428;50.950;6.912;2022-08-25T16:27:17;27.90;95.20
18597;DHT22;9428;50.950;6.912;2022-08-25T16:30:07;27.80;95.20
18597;DHT22;9428;50.950;6.912;2022-08-25T16:32:54;27.60;95.80
18597;DHT22;9428;50.950;6.912;2022-08-25T16:35:42;27.60;95.70
18597;DHT22;9428;50.950;6.912;2022-08-25T16:38:29;27.50;95.90
18597;DHT22;9428;50.950;6.912;2022-08-25T16:41:19;27.50;95.90
18597;DHT22;9428;50.950;6.912;2022-08-25T16:44:07;27.50;95.90
18597;DHT22;9428;50.950;6.912;2022-08-25T16:46:56;27.40;96.30
18597;DHT22;9428;50.950;6.912;2022-08-25T16:49:43;27.40;95.30
18597;DHT22;9428;50.950;6.912;2022-08-25T16:52:31;27.40;95.40
18597;DHT22;9428;50.950;6.912;2022-08-25T16:55:35;27.30;95.80
18597;DHT22;9428;50.950;6.912;2022-08-25T16:58:22;27.30;96.30
18597;DHT22;9428;50.950;6.912;2022-08-25T17:01:11;27.30;96.00
18597;DHT22;9428;50.950;6.912;2022-08-25T17:04:00;27.30;95.80
18597;DHT22;9428;50.950;6.912;2022-08-25T17:06:48;27.30;95.80
18597;DHT22;9428;50.950;6.912;2022-08-25T17:09:35;27.20;95.80
18597;DHT22;9428;50.950;6.912;2022-08-25T17:12:22;27.20;95.80
18597;DHT22;9428;50.950;6.912;2022-08-25T17:15:10;27.20;95.80
18597;DHT22;9428;50.950;6.912;2022-08-25T17:17:57;27.10;96.10
18597;DHT22;9428;50.950;6.912;2022-08-25T17:20:46;27.10;96.10
18597;DHT22;9428;50.950;6.912;2022-08-25T17:23:34;27.20;99.90
18597;DHT22;9428;50.950;6.912;2022-08-25T17:26:24;27.00;99.90
18597;DHT22;9428;50.950;6.912;2022-08-25T17:29:12;27.00;99.90
18597;DHT22;9428;50.950;6.912;2022-08-25T17:31:59;26.80;99.90
18597;DHT22;9428;50.950;6.912;2022-08-25T17:34:47;26.80;99.90
18597;DHT22;9428;50.950;6.912;2022-08-25T17:37:35;26.80;99.20
18597;DHT22;9428;50.950;6.912;2022-08-25T17:40:23;26.80;99.90
18597;DHT22;9428;50.950;6.912;2022-08-25T17:43:10;26.80;99.70
18597;DHT22;9428;50.950;6.912;2022-08-25T17:45:58;26.80;99.90
18597;DHT22;9428;50.950;6.912;2022-08-25T17:48:45;26.80;99.50
18597;DHT22;9428;50.950;6.912;2022-08-25T17:51:32;26.80;99.50
18597;DHT22;9428;50.950;6.912;2022-08-25T17:54:21;26.80;99.10
18597;DHT22;9428;50.950;6.912;2022-08-25T17:57:08;26.70;99.50
18597;DHT22;9428;50.950;6.912;2022-08-25T17:59:56;26.70;99.00
18597;DHT22;9428;50.950;6.912;2022-08-25T18:02:44;26.60;99.90
18597;DHT22;9428;50.950;6.912;2022-08-25T18:05:33;26.70;99.70
18597;DHT22;9428;50.950;6.912;2022-08-25T18:08:22;26.70;99.30
18597;DHT22;9428;50.950;6.912;2022-08-25T18:11:11;26.70;99.30
18597;DHT22;9428;50.950;6.912;2022-08-25T18:13:59;26.60;99.00
18597;DHT22;9428;50.950;6.912;2022-08-25T18:16:46;26.80;98.70
18597;DHT22;9428;50.950;6.912;2022-08-25T18:19:33;26.80;98.20
18597;DHT22;9428;50.950;6.912;2022-08-25T18:22:21;26.90;98.10
18597;DHT22;9428;50.950;6.912;2022-08-25T18:25:12;27.00;98.00